createdAt,value
2023-04-16T00:00:07.920Z,97.30
2023-04-16T00:02:34.543Z,97.37
2023-04-16T00:05:04.092Z,97.44
2023-04-16T00:07:33.072Z,97.47
2023-04-16T00:09:59.631Z,97.46
2023-04-16T00:12:26.126Z,97.74
2023-04-16T00:14:55.286Z,97.44
2023-04-16T00:17:21.781Z,97.65
2023-04-16T00:19:48.253Z,97.76
2023-04-16T00:22:14.728Z,97.83
2023-04-16T00:24:41.526Z,98.11
2023-04-16T00:27:10.735Z,97.86
2023-04-16T00:29:37.239Z,97.97
2023-04-16T00:32:03.765Z,98.09
2023-04-16T00:34:30.492Z,98.06
2023-04-16T00:36:56.924Z,98.07
2023-04-16T00:39:23.558Z,97.91
2023-04-16T00:41:52.246Z,98.38
2023-04-16T00:44:21.417Z,98.31
2023-04-16T00:46:48.028Z,98.15
2023-04-16T00:49:14.917Z,98.06
2023-04-16T00:51:41.452Z,98.20
2023-04-16T00:54:07.964Z,98.30
2023-04-16T00:56:38.007Z,98.24
2023-04-16T00:59:07.658Z,98.35
2023-04-16T01:01:39.188Z,98.40
2023-04-16T01:04:07.203Z,98.46
2023-04-16T01:06:34.255Z,98.35
2023-04-16T01:09:05.737Z,98.31
2023-04-16T01:11:32.673Z,97.95
2023-04-16T01:13:59.139Z,98.48
2023-04-16T01:16:26.876Z,98.50
2023-04-16T01:18:53.450Z,98.43
2023-04-16T01:21:19.952Z,98.54
2023-04-16T01:23:46.526Z,98.32
2023-04-16T01:26:18.090Z,98.44
2023-04-16T01:28:44.570Z,98.57
2023-04-16T01:31:11.132Z,98.53
2023-04-16T01:33:40.632Z,98.91
2023-04-16T01:36:09.599Z,98.56
2023-04-16T01:38:38.496Z,98.69
2023-04-16T01:41:09.807Z,98.59
2023-04-16T01:43:40.274Z,98.55
2023-04-16T01:46:25.949Z,98.54
2023-04-16T01:48:54.918Z,98.72
2023-04-16T01:51:22.178Z,98.55
2023-04-16T01:53:49.467Z,98.46
2023-04-16T01:56:16.179Z,98.49
2023-04-16T01:58:46.449Z,98.67
2023-04-16T02:01:13.746Z,98.59
2023-04-16T02:03:40.954Z,98.29
2023-04-16T02:06:10.314Z,98.52
2023-04-16T02:08:39.232Z,98.34
2023-04-16T02:11:05.795Z,98.41
2023-04-16T02:13:35.748Z,98.50
2023-04-16T02:16:02.718Z,98.45
2023-04-16T02:18:29.304Z,98.29
2023-04-16T02:21:01.043Z,98.25
2023-04-16T02:23:27.726Z,98.49
2023-04-16T02:25:58.878Z,98.29
2023-04-16T02:28:27.719Z,98.29
2023-04-16T02:30:56.567Z,98.25
2023-04-16T02:33:26.736Z,98.32
2023-04-16T02:35:53.282Z,98.21
2023-04-16T02:38:19.788Z,98.35
2023-04-16T02:40:46.309Z,98.45
2023-04-16T02:43:12.795Z,98.29
2023-04-16T02:45:39.309Z,98.36
2023-04-16T02:48:07.284Z,98.33
2023-04-16T02:50:33.757Z,98.38
2023-04-16T02:53:00.230Z,98.15
2023-04-16T02:55:26.853Z,98.58
2023-04-16T02:57:58.088Z,98.25
2023-04-16T03:00:24.558Z,98.15
2023-04-16T03:02:51.283Z,98.33
2023-04-16T03:05:22.858Z,98.27
2023-04-16T03:07:50.633Z,98.15
2023-04-16T03:10:19.477Z,98.29
2023-04-16T03:12:48.381Z,98.30
2023-04-16T03:15:15.229Z,98.39
2023-04-16T03:17:44.219Z,98.34
2023-04-16T03:20:11.169Z,98.50
2023-04-16T03:22:39.186Z,98.20
2023-04-16T03:25:06.602Z,98.34
2023-04-16T03:27:33.385Z,98.51
2023-04-16T03:30:03.265Z,98.81
2023-04-16T03:32:32.284Z,98.48
2023-04-16T03:34:58.904Z,98.74
2023-04-16T03:37:27.687Z,98.54
2023-04-16T03:39:54.320Z,98.66
2023-04-16T03:42:22.917Z,98.69
2023-04-16T03:44:53.592Z,98.62
2023-04-16T03:47:22.472Z,98.67
2023-04-16T03:49:51.312Z,98.65
2023-04-16T03:52:17.819Z,98.96
2023-04-16T03:54:46.818Z,98.56
2023-04-16T03:57:13.320Z,98.95
2023-04-16T03:59:42.056Z,98.70
2023-04-16T04:02:08.633Z,98.81
2023-04-16T04:04:35.318Z,98.82
2023-04-16T04:07:01.883Z,98.86
2023-04-16T04:09:28.405Z,98.92
2023-04-16T04:11:54.984Z,98.89
2023-04-16T04:14:21.743Z,98.76
2023-04-16T04:16:50.680Z,98.63
2023-04-16T04:19:17.197Z,98.82
2023-04-16T04:21:43.701Z,98.91
2023-04-16T04:24:10.381Z,98.88
2023-04-16T04:26:38.925Z,98.92
2023-04-16T04:29:05.654Z,99.03
2023-04-16T04:31:32.311Z,98.98
2023-04-16T04:34:01.025Z,98.75
2023-04-16T04:36:29.975Z,98.67
2023-04-16T04:38:56.486Z,98.42
2023-04-16T04:41:23.199Z,98.23
2023-04-16T04:43:49.679Z,98.75
2023-04-16T04:46:16.144Z,98.60
2023-04-16T04:48:44.914Z,98.60
2023-04-16T04:51:13.944Z,98.74
2023-04-16T04:53:42.954Z,98.86
2023-04-16T04:56:12.907Z,98.72
2023-04-16T04:58:40.900Z,98.49
2023-04-16T05:01:07.469Z,98.30
2023-04-16T05:03:34.057Z,98.66
2023-04-16T05:06:00.759Z,98.73
2023-04-16T05:08:29.384Z,98.55
2023-04-16T05:10:58.143Z,98.50
2023-04-16T05:13:24.707Z,98.33
2023-04-16T05:15:54.215Z,98.57
2023-04-16T05:18:20.641Z,98.47
2023-04-16T05:20:52.007Z,98.35
2023-04-16T05:23:18.456Z,98.44
2023-04-16T05:25:47.699Z,98.46
2023-04-16T05:28:14.588Z,98.43
2023-04-16T05:30:41.207Z,98.48
2023-04-16T05:33:07.726Z,98.09
2023-04-16T05:35:38.795Z,98.25
2023-04-16T05:38:05.269Z,98.01
2023-04-16T05:40:36.769Z,98.22
2023-04-16T05:43:03.380Z,98.16
2023-04-16T05:45:33.433Z,98.08
2023-04-16T05:48:00.019Z,98.13
2023-04-16T05:50:26.536Z,97.71
2023-04-16T05:52:57.994Z,98.27
2023-04-16T05:55:24.510Z,98.11
2023-04-16T05:57:52.077Z,97.99
2023-04-16T06:00:20.879Z,98.12
2023-04-16T06:02:47.549Z,98.00
2023-04-16T06:05:16.248Z,98.05
2023-04-16T06:07:47.527Z,97.95
2023-04-16T06:10:16.594Z,98.13
2023-04-16T06:12:45.373Z,98.09
2023-04-16T06:15:11.878Z,98.17
2023-04-16T06:17:40.795Z,98.07
2023-04-16T06:20:10.892Z,98.18
2023-04-16T06:22:37.551Z,98.21
2023-04-16T06:25:04.346Z,98.20
2023-04-16T06:27:31.422Z,98.16
2023-04-16T06:30:00.981Z,98.12
2023-04-16T06:32:30.086Z,98.16
2023-04-16T06:34:59.090Z,98.05
2023-04-16T06:37:25.630Z,97.97
2023-04-16T06:39:52.085Z,98.02
2023-04-16T06:42:18.549Z,97.94
2023-04-16T06:44:45.088Z,98.10
2023-04-16T06:47:16.200Z,98.09
2023-04-16T06:49:42.652Z,97.86
2023-04-16T06:52:11.439Z,97.96
2023-04-16T06:54:42.649Z,97.87
2023-04-16T06:57:13.920Z,97.69
2023-04-16T06:59:40.594Z,97.48
2023-04-16T07:02:10.601Z,97.56
2023-04-16T07:04:37.294Z,97.74
2023-04-16T07:07:06.105Z,97.67
2023-04-16T07:09:32.566Z,97.78
2023-04-16T07:11:59.058Z,97.57
2023-04-16T07:14:25.525Z,97.65
2023-04-16T07:16:52.095Z,97.61
2023-04-16T07:19:21.201Z,97.56
2023-04-16T07:21:47.812Z,97.45
2023-04-16T07:24:17.506Z,97.30
2023-04-16T07:26:43.983Z,97.60
2023-04-16T07:29:10.609Z,97.58
2023-04-16T07:31:37.311Z,97.56
2023-04-16T07:34:03.891Z,97.16
2023-04-16T07:36:32.852Z,97.51
2023-04-16T07:38:59.350Z,97.50
2023-04-16T07:41:29.394Z,97.50
2023-04-16T07:43:58.149Z,97.34
2023-04-16T07:46:28.236Z,97.25
2023-04-16T07:48:57.055Z,97.23
2023-04-16T07:51:23.957Z,97.13
2023-04-16T07:53:52.873Z,97.23
2023-04-16T07:56:19.335Z,97.26
2023-04-16T07:58:45.792Z,97.51
2023-04-16T08:01:16.797Z,97.39
2023-04-16T08:03:45.679Z,97.22
2023-04-16T08:06:12.368Z,97.12
2023-04-16T08:08:38.794Z,97.11
2023-04-16T08:11:05.282Z,97.17
2023-04-16T08:13:33.499Z,97.35
2023-04-16T08:16:03.566Z,96.92
2023-04-16T08:18:34.722Z,96.99
2023-04-16T08:21:01.512Z,96.74
2023-04-16T08:23:28.035Z,96.64
2023-04-16T08:25:56.755Z,96.48
2023-04-16T08:28:25.610Z,96.28
2023-04-16T08:30:52.181Z,96.34
2023-04-16T08:33:21.780Z,95.93
2023-04-16T08:35:48.362Z,95.89
2023-04-16T08:38:14.827Z,95.77
2023-04-16T08:40:48.672Z,95.20
2023-04-16T08:43:19.361Z,95.14
2023-04-16T08:45:50.532Z,95.05
2023-04-16T08:48:20.702Z,94.75
2023-04-16T08:50:52.299Z,94.64
2023-04-16T08:53:24.743Z,94.68
2023-04-16T08:56:02.107Z,94.49
2023-04-16T08:58:31.895Z,94.18
2023-04-16T09:01:03.265Z,93.92
2023-04-16T09:03:34.816Z,94.26
2023-04-16T09:06:04.478Z,94.02
2023-04-16T09:08:31.900Z,94.09
2023-04-16T09:11:01.883Z,93.56
2023-04-16T09:13:28.495Z,93.39
2023-04-16T09:15:56.956Z,92.93
2023-04-16T09:18:24.297Z,93.20
2023-04-16T09:20:51.938Z,93.20
2023-04-16T09:23:18.486Z,93.20
2023-04-16T09:25:45.122Z,93.12
2023-04-16T09:28:41.064Z,92.94
2023-04-16T09:31:11.311Z,92.92
2023-04-16T09:33:40.497Z,93.05
2023-04-16T09:36:07.592Z,92.60
2023-04-16T09:38:48.698Z,92.68
2023-04-16T09:41:18.517Z,92.47
2023-04-16T09:43:58.124Z,92.41
2023-04-16T09:46:29.991Z,92.10
2023-04-16T09:48:56.631Z,92.14
2023-04-16T09:51:28.305Z,91.99
2023-04-16T09:53:58.901Z,91.69
2023-04-16T09:56:26.135Z,91.89
2023-04-16T09:58:59.753Z,91.54
2023-04-16T10:01:26.392Z,91.49
2023-04-16T10:03:55.327Z,91.71
2023-04-16T10:06:29.096Z,91.74
2023-04-16T10:08:58.267Z,91.42
2023-04-16T10:11:25.709Z,91.67
2023-04-16T10:13:52.192Z,91.50
2023-04-16T10:16:23.482Z,91.50
2023-04-16T10:18:50.032Z,91.72
2023-04-16T10:21:16.746Z,91.51
2023-04-16T10:23:44.036Z,91.42
2023-04-16T10:26:13.916Z,90.98
2023-04-16T10:28:40.691Z,91.14
2023-04-16T10:31:10.636Z,91.14
2023-04-16T10:33:43.261Z,91.23
2023-04-16T10:36:22.855Z,91.08
2023-04-16T10:38:58.794Z,90.78
2023-04-16T10:41:28.831Z,90.95
2023-04-16T10:44:09.849Z,90.34
2023-04-16T10:46:39.929Z,90.36
2023-04-16T10:49:14.280Z,90.18
2023-04-16T10:51:53.359Z,90.46
2023-04-16T10:54:34.201Z,90.19
2023-04-16T10:57:10.140Z,90.44
2023-04-16T10:59:38.081Z,90.32
2023-04-16T11:02:11.860Z,90.20
2023-04-16T11:04:40.274Z,90.78
2023-04-16T11:07:18.797Z,90.60
2023-04-16T11:10:03.098Z,90.46
2023-04-16T11:12:29.836Z,90.24
2023-04-16T11:15:00.873Z,90.77
2023-04-16T11:17:43.150Z,90.50
2023-04-16T11:20:32.413Z,90.30
2023-04-16T11:22:58.962Z,90.01
2023-04-16T11:25:29.449Z,90.52
2023-04-16T11:27:59.186Z,90.49
2023-04-16T11:30:34.098Z,90.51
2023-04-16T11:33:09.404Z,90.74
2023-04-16T11:35:35.981Z,89.88
2023-04-16T11:38:02.594Z,89.93
2023-04-16T11:40:34.899Z,89.84
2023-04-16T11:43:17.203Z,89.46
2023-04-16T11:46:00.592Z,89.61
2023-04-16T11:48:46.932Z,88.89
2023-04-16T11:51:13.893Z,88.59
2023-04-16T11:53:51.363Z,88.13
2023-04-16T11:56:26.149Z,88.28
2023-04-16T11:59:14.418Z,88.45
2023-04-16T12:01:45.984Z,87.79
2023-04-16T12:04:19.216Z,87.73
2023-04-16T12:07:14.883Z,88.18
2023-04-16T12:09:43.412Z,88.20
2023-04-16T12:12:27.391Z,88.79
2023-04-16T12:14:54.780Z,88.58
2023-04-16T12:17:24.171Z,88.19
2023-04-16T12:19:56.022Z,88.65
2023-04-16T12:22:37.222Z,88.16
2023-04-16T12:25:10.621Z,88.47
2023-04-16T12:27:53.670Z,88.32
2023-04-16T12:30:26.069Z,88.51
2023-04-16T12:33:13.722Z,88.52
2023-04-16T12:35:43.541Z,88.82
2023-04-16T12:38:10.631Z,88.87
2023-04-16T12:40:39.337Z,88.36
2023-04-16T12:43:11.761Z,88.42
2023-04-16T12:45:39.753Z,87.84
2023-04-16T12:48:06.688Z,87.19
2023-04-16T12:50:35.771Z,87.23
2023-04-16T12:53:02.505Z,88.02
2023-04-16T12:55:28.952Z,87.04
2023-04-16T12:57:57.781Z,86.97
2023-04-16T13:00:26.748Z,87.02
2023-04-16T13:02:53.381Z,87.58
2023-04-16T13:05:22.650Z,86.70
2023-04-16T13:07:49.106Z,87.14
2023-04-16T13:10:18.155Z,86.84
2023-04-16T13:12:47.778Z,87.33
2023-04-16T13:15:14.279Z,87.04
2023-04-16T13:17:40.799Z,87.38
2023-04-16T13:20:10.123Z,87.29
2023-04-16T13:22:36.850Z,87.77
2023-04-16T13:25:03.394Z,87.28
2023-04-16T13:27:32.234Z,87.28
2023-04-16T13:30:01.347Z,87.13
2023-04-16T13:32:27.974Z,87.21
2023-04-16T13:34:54.580Z,87.69
2023-04-16T13:37:23.388Z,86.82
2023-04-16T13:39:52.578Z,86.63
2023-04-16T13:42:19.049Z,86.85
2023-04-16T13:44:48.845Z,86.82
2023-04-16T13:47:16.068Z,86.94
2023-04-16T13:49:47.601Z,87.20
2023-04-16T13:52:18.633Z,86.55
2023-04-16T13:54:45.100Z,87.18
2023-04-16T13:57:16.354Z,86.91
2023-04-16T13:59:42.806Z,86.66
2023-04-16T14:02:10.692Z,85.50
2023-04-16T14:04:37.233Z,85.81
2023-04-16T14:07:06.085Z,86.09
2023-04-16T14:09:35.097Z,86.06
2023-04-16T14:12:01.608Z,85.89
2023-04-16T14:14:35.373Z,84.94
2023-04-16T14:17:07.613Z,84.98
2023-04-16T14:19:34.428Z,84.57
2023-04-16T14:22:06.950Z,85.45
2023-04-16T14:24:34.410Z,85.45
2023-04-16T14:27:03.320Z,85.21
2023-04-16T14:29:36.364Z,85.48
2023-04-16T14:32:02.997Z,84.77
2023-04-16T14:34:29.497Z,84.27
2023-04-16T14:36:58.707Z,84.58
2023-04-16T14:39:27.605Z,84.11
2023-04-16T14:41:54.160Z,84.81
2023-04-16T14:44:21.593Z,85.28
2023-04-16T14:46:48.381Z,85.33
2023-04-16T14:49:15.107Z,85.08
2023-04-16T14:51:42.226Z,84.77
2023-04-16T14:54:09.141Z,85.40
2023-04-16T14:56:37.876Z,84.36
2023-04-16T14:59:04.611Z,84.19
2023-04-16T15:01:32.208Z,84.37
2023-04-16T15:04:02.050Z,84.23
2023-04-16T15:06:32.304Z,84.33
2023-04-16T15:08:58.996Z,84.33
2023-04-16T15:11:25.701Z,83.54
2023-04-16T15:13:54.525Z,83.19
2023-04-16T15:16:23.423Z,83.69
2023-04-16T15:18:50.795Z,83.10
2023-04-16T15:21:17.313Z,82.75
2023-04-16T15:23:46.169Z,83.44
2023-04-16T15:26:15.365Z,82.85
2023-04-16T15:28:41.849Z,83.07
2023-04-16T15:31:08.915Z,83.23
2023-04-16T15:33:35.448Z,84.06
2023-04-16T15:36:01.899Z,83.62
2023-04-16T15:38:30.656Z,83.67
2023-04-16T15:41:02.634Z,83.96
2023-04-16T15:43:29.776Z,84.01
2023-04-16T15:45:57.184Z,84.68
2023-04-16T15:48:24.528Z,84.26
2023-04-16T15:50:54.243Z,84.79
2023-04-16T15:53:21.209Z,84.95
2023-04-16T15:55:50.312Z,84.90
2023-04-16T15:58:16.937Z,84.74
2023-04-16T16:00:46.418Z,85.04
2023-04-16T16:03:19.144Z,86.11
2023-04-16T16:05:47.179Z,86.21
2023-04-16T16:08:16.935Z,85.95
2023-04-16T16:10:46.767Z,85.85
2023-04-16T16:13:16.014Z,86.41
2023-04-16T16:15:42.537Z,86.59
2023-04-16T16:18:09.243Z,86.70
2023-04-16T16:20:37.015Z,86.94
2023-04-16T16:23:06.358Z,87.09
2023-04-16T16:25:32.989Z,87.21
2023-04-16T16:27:59.984Z,86.99
2023-04-16T16:30:28.948Z,86.86
2023-04-16T16:32:58.302Z,86.85
2023-04-16T16:35:26.055Z,87.14
2023-04-16T16:37:57.307Z,87.08
2023-04-16T16:40:24.426Z,87.29
2023-04-16T16:42:53.660Z,86.75
2023-04-16T16:45:22.676Z,87.00
2023-04-16T16:47:51.854Z,87.13
2023-04-16T16:50:18.536Z,87.17
2023-04-16T16:52:47.268Z,87.41
2023-04-16T16:57:42.907Z,88.11
2023-04-16T17:00:15.043Z,88.40
2023-04-16T17:02:42.077Z,88.60
2023-04-16T17:05:09.482Z,88.81
2023-04-16T17:07:36.394Z,89.06
2023-04-16T17:10:05.269Z,89.10
2023-04-16T17:12:33.222Z,89.43
2023-04-16T17:15:01.750Z,89.47
2023-04-16T17:17:29.219Z,89.60
2023-04-16T17:19:55.733Z,89.79
2023-04-16T17:22:22.240Z,89.63
2023-04-16T17:24:48.817Z,89.79
2023-04-16T17:27:15.289Z,89.91
2023-04-16T17:29:44.179Z,89.81
2023-04-16T17:32:12.997Z,90.21
2023-04-16T17:34:39.484Z,90.30
2023-04-16T17:37:06.060Z,90.37
2023-04-16T17:39:32.543Z,90.38
2023-04-16T17:42:01.229Z,90.56
2023-04-16T17:44:28.015Z,90.71
2023-04-16T17:46:59.179Z,90.81
2023-04-16T17:49:25.747Z,90.93
2023-04-16T17:51:53.791Z,90.99
2023-04-16T17:54:21.285Z,90.97
2023-04-16T17:56:47.743Z,91.28
2023-04-16T17:59:14.213Z,91.09
2023-04-16T18:01:41.686Z,91.36
2023-04-16T18:04:10.962Z,91.41
2023-04-16T18:06:39.958Z,91.67
2023-04-16T18:09:07.229Z,91.60
2023-04-16T18:11:34.026Z,91.77
2023-04-16T18:14:00.487Z,91.83
2023-04-16T18:16:26.960Z,92.28
2023-04-16T18:18:53.529Z,92.07
2023-04-16T18:21:22.482Z,92.23
2023-04-16T18:23:48.992Z,92.33
2023-04-16T18:26:18.647Z,92.51
2023-04-16T18:28:49.887Z,92.61
2023-04-16T18:31:18.993Z,92.72
2023-04-16T18:33:56.332Z,92.90
2023-04-16T18:36:24.457Z,93.06
2023-04-16T18:39:00.891Z,93.00
2023-04-16T18:41:33.007Z,93.23
2023-04-16T18:43:59.491Z,93.48
2023-04-16T18:46:27.740Z,93.47
2023-04-16T18:48:54.415Z,93.63
2023-04-16T18:51:21.295Z,93.51
2023-04-16T18:53:50.649Z,93.70
2023-04-16T18:56:19.812Z,93.72
2023-04-16T18:58:49.292Z,93.67
2023-04-16T19:01:16.515Z,93.73
2023-04-16T19:03:43.242Z,93.84
2023-04-16T19:06:09.794Z,93.83
2023-04-16T19:08:36.470Z,93.52
2023-04-16T19:11:02.942Z,93.75
2023-04-16T19:13:30.442Z,94.10
2023-04-16T19:16:01.420Z,93.87
2023-04-16T19:18:28.092Z,94.04
2023-04-16T19:21:03.443Z,94.01
2023-04-16T19:23:34.703Z,93.73
2023-04-16T19:26:01.623Z,94.07
2023-04-16T19:28:28.460Z,94.12
2023-04-16T19:30:57.117Z,93.83
2023-04-16T19:33:26.170Z,94.05
2023-04-16T19:35:55.816Z,94.11
2023-04-16T19:38:22.396Z,94.02
2023-04-16T19:40:49.008Z,94.17
2023-04-16T19:43:17.809Z,94.16
2023-04-16T19:45:53.394Z,94.05
2023-04-16T19:48:23.447Z,94.06
2023-04-16T19:50:49.978Z,94.14
2023-04-16T19:53:19.347Z,94.09
2023-04-16T19:55:45.900Z,93.94
2023-04-16T19:58:14.402Z,94.12
2023-04-16T20:00:43.723Z,94.35
2023-04-16T20:03:10.704Z,94.34
2023-04-16T20:05:37.213Z,94.39
2023-04-16T20:08:03.809Z,94.30
2023-04-16T20:10:31.547Z,94.39
2023-04-16T20:12:58.224Z,94.35
2023-04-16T20:15:24.773Z,94.34
2023-04-16T20:17:53.524Z,94.47
2023-04-16T20:20:20.149Z,94.41
2023-04-16T20:22:46.645Z,94.03
2023-04-16T20:25:14.318Z,94.38
2023-04-16T20:27:40.774Z,94.30
2023-04-16T20:30:07.815Z,94.19
2023-04-16T20:32:36.789Z,94.23
2023-04-16T20:35:10.246Z,94.55
2023-04-16T20:37:38.519Z,94.60
2023-04-16T20:40:09.242Z,94.58
2023-04-16T20:42:35.754Z,94.62
2023-04-16T20:45:04.847Z,94.72
2023-04-16T20:47:31.363Z,95.01
2023-04-16T20:50:01.693Z,94.62
2023-04-16T20:52:30.761Z,94.90
2023-04-16T20:54:57.846Z,95.09
2023-04-16T20:57:24.348Z,94.87
2023-04-16T20:59:53.334Z,95.06
2023-04-16T21:02:20.677Z,95.02
2023-04-16T21:04:47.326Z,95.33
2023-04-16T21:07:14.241Z,95.41
2023-04-16T21:09:40.755Z,95.48
2023-04-16T21:12:07.487Z,95.44
2023-04-16T21:14:36.344Z,95.55
2023-04-16T21:17:07.682Z,95.60
2023-04-16T21:19:36.440Z,95.73
2023-04-16T21:22:02.888Z,95.47
2023-04-16T21:24:34.901Z,95.45
2023-04-16T21:27:06.252Z,95.62
2023-04-16T21:29:32.768Z,95.45
2023-04-16T21:31:59.296Z,95.40
2023-04-16T21:34:25.820Z,95.11
2023-04-16T21:36:54.468Z,95.25
2023-04-16T21:39:25.902Z,94.89
2023-04-16T21:41:52.367Z,94.81
2023-04-16T21:44:21.345Z,95.13
2023-04-16T21:46:50.344Z,95.24
2023-04-16T21:49:16.779Z,95.05
2023-04-16T21:51:46.109Z,94.90
2023-04-16T21:54:12.883Z,95.36
2023-04-16T21:56:39.428Z,95.44
2023-04-16T21:59:09.053Z,95.24
2023-04-16T22:01:40.231Z,95.23
2023-04-16T22:04:07.454Z,95.20
2023-04-16T22:06:34.167Z,95.48
2023-04-16T22:09:01.673Z,95.43
2023-04-16T22:11:30.574Z,95.35
2023-04-16T22:13:59.425Z,95.60
2023-04-16T22:16:25.982Z,95.49
2023-04-16T22:18:55.072Z,95.71
2023-04-16T22:21:21.585Z,95.70
2023-04-16T22:23:48.407Z,95.82
2023-04-16T22:26:14.908Z,95.90
2023-04-16T22:28:41.596Z,95.53
2023-04-16T22:31:10.577Z,96.10
2023-04-16T22:33:39.159Z,95.86
2023-04-16T22:36:06.252Z,96.21
2023-04-16T22:38:32.727Z,96.11
2023-04-16T22:40:59.251Z,96.42
2023-04-16T22:43:25.717Z,96.28
2023-04-16T22:46:02.433Z,96.23
2023-04-16T22:48:31.772Z,96.19
2023-04-16T22:50:58.299Z,96.05
2023-04-16T22:53:24.913Z,96.08
2023-04-16T22:55:51.432Z,96.33
2023-04-16T22:58:17.980Z,96.36
2023-04-16T23:00:47.847Z,96.64
2023-04-16T23:03:19.609Z,96.86
2023-04-16T23:05:48.604Z,96.74
2023-04-16T23:08:15.049Z,96.94
2023-04-16T23:10:43.885Z,96.95
2023-04-16T23:13:13.400Z,97.16
2023-04-16T23:15:39.847Z,97.12
2023-04-16T23:18:08.944Z,97.04
2023-04-16T23:20:35.532Z,97.03
2023-04-16T23:23:02.045Z,96.99
2023-04-16T23:25:30.958Z,97.22
2023-04-16T23:27:57.489Z,97.33
2023-04-16T23:30:23.956Z,97.20
2023-04-16T23:32:50.655Z,97.68
2023-04-16T23:35:22.663Z,97.60
2023-04-16T23:37:49.625Z,97.49
2023-04-16T23:40:19.127Z,97.31
2023-04-16T23:42:48.092Z,97.16
2023-04-16T23:45:14.605Z,97.21
2023-04-16T23:47:41.232Z,96.93
2023-04-16T23:50:07.894Z,96.83
2023-04-16T23:52:34.453Z,96.51
2023-04-16T23:55:03.317Z,96.57
2023-04-16T23:57:32.080Z,95.98
2023-04-16T23:59:58.558Z,96.19
